ADDS METAR Data INFO
IDs: Format: Raw Decoded Include TAF

Data at: 1114 UTC 13 Dec 2017

KTAD 131054Z AUTO 27013KT 10SM CLR 01/M12 A3009 RMK AO2 SLP161 T00111122
KTAD 130954Z AUTO 27010KT 10SM CLR 02/M12 A3009 RMK AO2 SLP156 T00171117
KTAD 130854Z AUTO 26013KT 10SM CLR 03/M12 A3010 RMK AO2 SLP157 T00281117 56012
KTAD 130754Z AUTO 25012KT 10SM CLR 02/M12 A3011 RMK AO2 SLP160 T00221117
KTAD 130654Z AUTO 29010KT 10SM CLR 01/M11 A3013 RMK AO2 SLP176 T00061106 401781050
KTAD 130554Z AUTO 30010KT 10SM CLR 02/M11 A3014 RMK AO2 SLP181 T00171111 10117 20017 55007
KTAD 130454Z AUTO 26011KT 10SM CLR 05/M12 A3014 RMK AO2 SLP180 T00501117
KTAD 130354Z AUTO 24013KT 10SM CLR 07/M12 A3015 RMK AO2 SLP188 T00671122
KTAD 130254Z AUTO 24012KT 10SM CLR 07/M13 A3017 RMK AO2 SLP207 T00671128 58009
KTAD 130154Z AUTO 26010KT 10SM CLR 05/M13 A3020 RMK AO2 SLP224 T00501128
KTAD 130054Z AUTO 25010KT 10SM CLR 06/M12 A3020 RMK AO2 SLP220 T00561117
KTAD 122354Z AUTO 15005KT 10SM CLR 12/M12 A3020 RMK AO2 SLP211 T01171122 10178 20117 56013
KTAD 122254Z AUTO 11006KT 10SM CLR 16/M12 A3021 RMK AO2 SLP210 T01561122
KTAD 122154Z AUTO 12004KT 10SM CLR 17/M13 A3023 RMK AO2 SLP212 T01721128
KTAD 122054Z AUTO 12004KT 10SM CLR 17/M13 A3025 RMK AO2 SLP221 T01721133 56040
KTAD 121954Z AUTO 17005KT 10SM CLR 17/M14 A3028 RMK AO2 SLP232 T01671139
KTAD 121854Z AUTO VRB03KT 10SM CLR 14/M15 A3033 RMK AO2 SLP253 T01441150
KTAD 121754Z AUTO 00000KT 10SM CLR 13/M15 A3038 RMK AO2 SLP278 T01331150 10133 21044 58007
KTAD 121654Z AUTO 24010KT 10SM CLR 10/M13 A3041 RMK AO2 SLP292 T01001128
KTAD 121554Z AUTO 27011KT 10SM CLR 06/M12 A3042 RMK AO2 SLP308 T00611122
KTAD 121454Z AUTO 26010KT 10SM CLR 01/M13 A3041 RMK AO2 SLP316 T00061128 58003
KTAD 121354Z AUTO 26010KT 10SM CLR M01/M14 A3041 RMK AO2 SLP314 T10111139
KTAD 121254Z AUTO 24009KT 10SM CLR 01/M14 A3042 RMK AO2 SLP300 T00061139
KTAD 121154Z AUTO 23010KT 10SM CLR M01/M14 A3042 RMK AO2 SLP296 T10061139 11006 21050 58018
KTAD 121054Z AUTO 24013KT 10SM CLR M02/M14 A3044 RMK AO2 SLP297 T10221139
KTAD 120954Z AUTO 24011KT 10SM CLR M03/M14 A3047 RMK AO2 SLP302 T10281139
KTAD 120854Z AUTO 25005KT 10SM CLR M04/M14 A3048 RMK AO2 SLP310 T10391144 56002
KTAD 120754Z AUTO 26006KT 10SM CLR M02/M14 A3049 RMK AO2 SLP306 T10221139
KTAD 120654Z AUTO 28009KT 10SM CLR M02/M13 A3048 RMK AO2 SLP303 T10171133 401561039
KTAD 120554Z AUTO 29009KT 10SM CLR M03/M13 A3049 RMK AO2 SLP313 T10331133 10078 21039 53005
KTAD 120454Z AUTO 28008KT 10SM CLR M03/M14 A3048 RMK AO2 SLP321 T10281139
KTAD 120354Z AUTO 29007KT 10SM CLR M04/M14 A3048 RMK AO2 SLP332 T10391144
KTAD 120254Z AUTO 28007KT 10SM CLR M03/M14 A3047 RMK AO2 SLP339 T10281144 51026
KTAD 120154Z AUTO 25005KT 10SM CLR 00/M16 A3046 RMK AO2 SLP329 T00001156
KTAD 120054Z AUTO 07003KT 10SM CLR 05/M16 A3044 RMK AO2 SLP307 T00501156
KTAD 112354Z AUTO 06010KT 10SM CLR 08/M16 A3038 RMK AO2 SLP282 T00781156 10156 20078 53028